Time;durP1;ratioP1;P1;durP2;ratioP2;P2;SDS_P1;SDS_P2;PMS_P1;PMS_P2;Temp;Humidity;BMP_temperature;BMP_pressure;BME280_temperature;BME280_humidity;BME280_pressure;Samples;Min_cycle;Max_cycle;Signal;HPM_P1;HPM_P2
2022/10/18 00:03:19;;;;;;;241.70;57.13;;;;;;;10.17;100.00;102295.56;12898443;22;20004;-92
2022/10/18 00:08:20;;;;;;;210.32;51.47;;;;;;;11.30;100.00;102520.16;12893866;22;20019;-88
2022/10/18 00:13:20;;;;;;;229.48;48.55;;;;;;;10.42;100.00;102344.41;12893863;22;20098;-92
2022/10/18 00:18:21;;;;;;;333.83;45.22;;;;;;;11.58;100.00;102563.97;12897841;22;20071;-91
2022/10/18 00:23:22;;;;;;;234.85;40.38;;;;;;;9.78;100.00;102300.09;12876885;22;20101;-88
2022/10/18 00:28:23;;;;;;;286.17;46.22;;;;;;;10.26;100.00;102368.56;12858812;22;20042;-92
2022/10/18 00:33:23;;;;;;;203.18;46.50;;;;;;;9.85;100.00;102328.41;12873692;22;20004;-91
2022/10/18 00:38:24;;;;;;;170.85;46.00;;;;;;;9.67;100.00;102312.59;12898475;22;20318;-92
2022/10/18 00:43:27;;;;;;;180.93;45.90;;;;;;;11.30;100.00;102553.25;12893465;22;20482;-88
2022/10/18 00:48:28;;;;;;;157.77;44.22;;;;;;;10.49;100.00;102433.34;12898456;22;20087;-93
2022/10/18 00:53:28;;;;;;;157.82;43.92;;;;;;;9.64;100.00;102296.50;12871903;22;20003;-92
2022/10/18 00:58:29;;;;;;;176.48;46.20;;;;;;;9.46;100.00;102272.41;12897426;22;19999;-88
2022/10/18 01:03:30;;;;;;;167.25;44.00;;;;;;;10.43;100.00;102442.47;12886264;22;20035;-89
2022/10/18 01:08:48;;;;;;;163.23;44.55;;;;;;;10.12;100.00;102432.09;12891920;22;20141;-92
2022/10/18 01:13:51;;;;;;;154.07;42.75;;;;;;;10.31;100.00;102450.50;12922820;22;20004;-92
2022/10/18 01:18:58;;;;;;;162.77;45.15;;;;;;;10.93;100.00;102552.94;12947831;22;20484;-92
2022/10/18 01:24:24;;;;;;;141.60;43.33;;;;;;;10.90;100.00;102562.50;12917318;22;20022;-90
2022/10/18 01:29:43;;;;;;;143.15;40.38;;;;;;;10.44;100.00;102500.06;12918389;22;20024;-92
2022/10/18 01:34:44;;;;;;;179.95;43.25;;;;;;;8.89;100.00;102233.53;12943113;22;20053;-88
2022/10/18 01:39:47;;;;;;;186.57;45.60;;;;;;;9.07;100.00;102267.75;12889755;22;20000;-88
2022/10/18 01:44:49;;;;;;;113.18;35.85;;;;;;;10.34;100.00;102542.88;12879672;22;20024;-88
2022/10/18 01:49:58;;;;;;;113.95;34.60;;;;;;;8.46;100.00;102220.13;12879293;22;20010;-92
2022/10/18 01:54:59;;;;;;;118.43;38.03;;;;;;;8.75;100.00;102263.94;12895884;22;19999;-92
2022/10/18 02:00:18;;;;;;;306.88;44.47;;;;;;;8.96;100.00;102334.31;12878667;22;20034;-92
2022/10/18 02:05:33;;;;;;;174.35;41.45;;;;;;;10.10;100.00;102470.81;12870533;22;20042;-91
2022/10/18 02:10:41;;;;;;;120.78;35.25;;;;;;;8.87;100.00;102306.19;12945534;22;20095;-92
2022/10/18 02:15:42;;;;;;;115.45;37.05;;;;;;;9.73;100.00;102470.38;12896029;22;20019;-92
2022/10/18 02:20:43;;;;;;;255.13;44.35;;;;;;;8.36;100.00;102269.06;12870505;22;20003;-93
2022/10/18 02:25:43;;;;;;;299.85;43.05;;;;;;;9.48;100.00;102473.72;12881666;22;20016;-92
2022/10/18 02:31:05;;;;;;;158.38;36.33;;;;;;;9.55;100.00;102464.63;12881388;22;20327;-88
2022/10/18 02:36:44;;;;;;;136.10;35.65;;;;;;;8.46;100.00;102274.19;12920831;22;20011;-88
2022/10/18 02:41:45;;;;;;;205.40;41.60;;;;;;;8.94;100.00;102366.63;12879923;22;20450;-92
2022/10/18 02:46:45;;;;;;;117.25;36.72;;;;;;;8.37;100.00;102262.53;12866709;22;20071;-92
2022/10/18 02:51:49;;;;;;;125.50;38.95;;;;;;;8.41;100.00;102288.53;12884359;22;21420;-93
2022/10/18 02:56:52;;;;;;;181.55;42.45;;;;;;;8.45;100.00;102269.75;12885053;22;20082;-93
2022/10/18 03:01:53;;;;;;;291.17;45.00;;;;;;;9.21;100.00;102373.03;12877630;22;20012;-88
2022/10/18 03:06:53;;;;;;;178.75;39.00;;;;;;;9.18;100.00;102389.94;12875783;22;20098;-88
2022/10/18 03:11:54;;;;;;;171.57;38.40;;;;;;;10.33;100.00;102552.16;12898159;22;20008;-88
2022/10/18 03:16:54;;;;;;;316.48;47.70;;;;;;;9.29;100.00;102364.59;12918802;22;20022;-88
2022/10/18 03:21:55;;;;;;;179.40;42.72;;;;;;;9.57;100.00;102422.16;12877788;22;20429;-88
2022/10/18 03:26:58;;;;;;;264.73;44.15;;;;;;;9.35;100.00;102347.25;12893595;22;20091;-88
2022/10/18 03:31:59;;;;;;;161.77;44.08;;;;;;;9.31;100.00;102351.50;12890244;22;20012;-88
2022/10/18 03:36:59;;;;;;;189.40;43.38;;;;;;;9.52;100.00;102349.59;12879625;22;20415;-92
2022/10/18 03:42:00;;;;;;;225.50;45.80;;;;;;;9.69;100.00;102383.84;12880900;22;20008;-88
2022/10/18 03:47:00;;;;;;;306.75;50.53;;;;;;;9.08;100.00;102269.47;12888690;22;20059;-93
2022/10/18 03:52:01;;;;;;;409.85;55.65;;;;;;;10.09;100.00;102375.59;12846962;22;19996;-93
2022/10/18 03:57:05;;;;;;;494.25;66.28;;;;;;;10.13;100.00;102376.84;12857092;22;20007;-88
2022/10/18 04:02:05;;;;;;;343.58;54.80;;;;;;;9.81;100.00;102321.66;12895751;22;20027;-94
2022/10/18 04:07:06;;;;;;;452.00;61.28;;;;;;;9.96;100.00;102306.81;12899211;22;20020;-93
2022/10/18 04:12:07;;;;;;;452.65;57.80;;;;;;;9.85;100.00;102289.06;12884595;22;20085;-92
2022/10/18 04:17:07;;;;;;;391.55;57.97;;;;;;;10.36;100.00;102367.31;12887370;22;20019;-92
2022/10/18 04:22:09;;;;;;;470.10;61.50;;;;;;;10.18;100.00;102344.00;12767192;22;20183;-88
2022/10/18 04:27:10;;;;;;;368.05;54.20;;;;;;;9.62;100.00;102286.78;12891839;22;20453;-93
2022/10/18 04:32:10;;;;;;;395.25;58.38;;;;;;;9.87;100.00;102295.19;12897086;22;20027;-94
2022/10/18 04:37:13;;;;;;;333.77;54.28;;;;;;;10.03;100.00;102337.94;12881743;22;20007;-93
2022/10/18 04:42:14;;;;;;;376.55;55.47;;;;;;;9.96;100.00;102337.06;12881973;22;20016;-94
2022/10/18 04:47:15;;;;;;;331.15;50.20;;;;;;;10.27;100.00;102374.91;12850110;22;20376;-92
2022/10/18 04:52:15;;;;;;;418.75;58.75;;;;;;;9.84;100.00;102324.00;12894704;22;20067;-95
2022/10/18 04:57:16;;;;;;;413.05;52.60;;;;;;;11.09;100.00;102502.84;12892679;22;20050;-90
2022/10/18 05:02:16;;;;;;;293.55;47.72;;;;;;;9.88;100.00;102340.88;12893121;22;20414;-94
2022/10/18 05:07:17;;;;;;;280.95;46.53;;;;;;;10.71;100.00;102458.72;12892548;22;20058;-90
2022/10/18 05:12:23;;;;;;;408.23;51.90;;;;;;;11.48;100.00;102605.78;12864055;22;20082;-92
2022/10/18 05:17:24;;;;;;;367.67;51.13;;;;;;;10.14;100.00;102388.69;12814002;22;20016;-93
2022/10/18 05:22:30;;;;;;;335.25;48.50;;;;;;;9.21;100.00;102219.16;12778715;22;20003;-93
2022/10/18 05:27:30;;;;;;;353.60;46.22;;;;;;;10.21;100.00;102387.63;12809389;22;20018;-95
2022/10/18 05:32:31;;;;;;;293.20;45.70;;;;;;;9.48;100.00;102300.53;12703390;22;20046;-95
2022/10/18 05:37:35;;;;;;;427.20;50.47;;;;;;;10.52;100.00;102463.19;12685902;22;20027;-92
2022/10/18 05:42:36;;;;;;;270.90;44.70;;;;;;;9.41;100.00;102258.47;12700253;22;20008;-90
2022/10/18 05:47:47;;;;;;;;;;;;;;;;;;;;;
2022/10/18 05:52:56;;;;;;;328.08;43.78;;;;;;;10.00;100.00;102421.72;12822401;22;20004;-91
2022/10/18 05:58:02;;;;;;;294.25;44.20;;;;;;;9.70;100.00;102360.81;12805552;22;20009;-93
2022/10/18 06:03:07;;;;;;;322.25;45.67;;;;;;;10.80;100.00;102566.75;12766518;22;20008;-92
2022/10/18 06:08:07;;;;;;;326.02;42.45;;;;;;;9.43;100.00;102349.81;12789120;22;20031;-92
2022/10/18 06:13:11;;;;;;;364.83;45.13;;;;;;;10.72;100.00;102536.69;12740836;22;20003;-93
2022/10/18 06:18:12;;;;;;;330.88;43.22;;;;;;;9.19;100.00;102282.56;12831078;22;20041;-90
2022/10/18 06:23:13;;;;;;;254.18;38.85;;;;;;;9.29;100.00;102348.94;12859135;22;20499;-91
2022/10/18 06:28:16;;;;;;;246.63;38.72;;;;;;;9.83;100.00;102399.31;12845682;22;20020;-92
2022/10/18 06:33:16;;;;;;;353.23;42.80;;;;;;;10.57;100.00;102510.22;12737102;22;20154;-90
2022/10/18 06:38:17;;;;;;;240.63;38.17;;;;;;;9.39;100.00;102340.28;12823336;22;20532;-90
2022/10/18 06:43:21;;;;;;;232.13;35.03;;;;;;;9.42;100.00;102385.75;12785207;22;20079;-93
2022/10/18 06:48:25;;;;;;;247.00;34.35;;;;;;;9.53;100.00;102393.38;12843450;22;20023;-90
2022/10/18 06:53:26;;;;;;;273.88;35.17;;;;;;;9.74;100.00;102458.34;12786909;22;20006;-90
2022/10/18 06:58:37;;;;;;;249.68;32.08;;;;;;;10.20;100.00;102501.53;12844853;22;20008;-93
2022/10/18 07:03:38;;;;;;;217.23;29.58;;;;;;;9.92;100.00;102506.38;12750968;22;20079;-91
2022/10/18 07:08:51;;;;;;;251.93;29.58;;;;;;;9.74;100.00;102439.09;12700206;22;20020;-93
2022/10/18 07:14:14;;;;;;;;;;;;;;;;;;;;;
2022/10/18 07:19:32;;;;;;;231.40;29.30;;;;;;;9.41;100.00;102398.66;12696736;22;20060;-91
2022/10/18 07:24:42;;;;;;;296.23;36.60;;;;;;;9.89;100.00;102469.13;12825054;22;20024;-93
2022/10/18 07:29:48;;;;;;;234.73;30.25;;;;;;;9.93;100.00;102494.34;12785484;22;20019;-90
2022/10/18 07:34:57;;;;;;;220.63;30.40;;;;;;;8.92;100.00;102322.88;12738017;22;20016;-91
2022/10/18 07:39:57;;;;;;;163.88;25.90;;;;;;;9.62;100.00;102468.25;12797090;22;20015;-93
2022/10/18 07:44:58;;;;;;;246.63;25.95;;;;;;;9.94;100.00;102499.59;12752195;22;20458;-91
2022/10/18 07:49:59;;;;;;;139.90;23.60;;;;;;;9.31;100.00;102477.91;12783734;22;20003;-91
2022/10/18 07:55:02;;;;;;;205.63;25.92;;;;;;;10.02;100.00;102534.31;12790814;22;20018;-90
2022/10/18 08:00:03;;;;;;;127.38;25.52;;;;;;;9.23;100.00;102409.41;12736091;22;20027;-92
2022/10/18 08:05:06;;;;;;;139.55;25.23;;;;;;;9.97;100.00;102506.63;12762337;22;20024;-92
2022/10/18 08:10:07;;;;;;;137.98;25.10;;;;;;;10.52;100.00;102628.41;12886761;22;20049;-89
2022/10/18 08:15:25;;;;;;;156.60;25.15;;;;;;;9.88;100.00;102454.53;12878778;22;20008;-90
2022/10/18 08:20:26;;;;;;;102.13;24.42;;;;;;;10.54;100.00;102584.97;12882100;22;20067;-91
2022/10/18 08:25:29;;;;;;;85.03;21.90;;;;;;;10.28;100.00;102591.31;12807694;22;20043;-91
2022/10/18 08:30:30;;;;;;;83.72;24.35;;;;;;;10.18;100.00;102528.41;12850840;22;20001;-90
2022/10/18 08:35:30;;;;;;;83.65;24.60;;;;;;;10.36;100.00;102540.75;12860749;22;20018;-91
2022/10/18 08:40:33;;;;;;;63.28;22.58;;;;;;;10.37;100.00;102542.44;12833447;22;20014;-90
2022/10/18 08:45:37;;;;;;;61.83;21.73;;;;;;;10.77;100.00;102663.59;12898327;22;20015;-91
2022/10/18 08:50:42;;;;;;;63.63;21.43;;;;;;;9.50;100.00;102448.78;12814479;22;20071;-91
2022/10/18 08:55:51;;;;;;;70.22;23.73;;;;;;;11.37;100.00;102704.88;12819375;22;20005;-92
2022/10/18 09:01:07;;;;;;;65.00;24.13;;;;;;;10.66;100.00;102607.22;12904169;22;20004;-90
2022/10/18 09:06:35;;;;;;;70.40;24.27;;;;;;;11.33;100.00;102723.78;12881651;22;20500;-90
2022/10/18 09:12:00;;;;;;;57.55;22.15;;;;;;;11.97;100.00;102747.00;12841484;22;20342;-88
2022/10/18 09:17:24;;;;;;;47.28;18.00;;;;;;;12.14;100.00;102752.03;12880386;22;20095;-89
2022/10/18 09:22:40;;;;;;;36.50;15.52;;;;;;;10.77;100.00;102553.38;12908676;22;20004;-91
2022/10/18 09:27:54;;;;;;;39.45;11.57;;;;;;;10.32;100.00;102423.84;12918807;22;20024;-91
2022/10/18 09:33:11;;;;;;;30.30;10.73;;;;;;;10.77;100.00;102520.34;12877943;22;20015;-91
2022/10/18 09:38:12;;;;;;;34.53;12.95;;;;;;;10.99;100.00;102468.56;12889005;22;20003;-90
2022/10/18 09:43:19;;;;;;;24.77;11.63;;;;;;;11.18;100.00;102453.00;12874438;22;20015;-89
2022/10/18 09:48:41;;;;;;;30.48;11.30;;;;;;;11.68;100.00;102561.56;12887726;22;20020;-90
2022/10/18 09:54:26;;;;;;;25.02;10.10;;;;;;;12.74;100.00;102672.41;12876776;22;20385;-89
2022/10/18 09:59:31;;;;;;;19.73;6.15;;;;;;;12.89;100.00;102677.59;12626164;23;20047;-88
2022/10/18 10:04:31;;;;;;;14.82;4.85;;;;;;;12.97;100.00;102635.84;12849127;22;20014;-89
2022/10/18 10:09:55;;;;;;;12.02;3.22;;;;;;;13.86;100.00;102736.00;12854426;22;20378;-89
2022/10/18 10:15:18;;;;;;;11.02;3.00;;;;;;;13.24;100.00;102610.69;12866531;22;20023;-88
2022/10/18 10:20:23;;;;;;;8.98;2.58;;;;;;;13.19;100.00;102560.72;12877532;22;20030;-88
2022/10/18 10:25:28;;;;;;;18.60;2.90;;;;;;;14.01;100.00;102649.75;12887173;22;20099;-88
2022/10/18 10:30:37;;;;;;;12.48;2.55;;;;;;;14.42;100.00;102697.13;12912700;22;20334;-89
2022/10/18 10:35:39;;;;;;;12.88;2.70;;;;;;;14.01;100.00;102568.63;12912541;22;20079;-88
2022/10/18 10:40:49;;;;;;;14.73;2.50;;;;;;;14.63;100.00;102641.19;12887885;22;20006;-88
2022/10/18 10:46:00;;;;;;;14.43;1.98;;;;;;;14.77;100.00;102663.16;12888528;22;20085;-89
2022/10/18 10:51:08;;;;;;;12.82;1.45;;;;;;;14.36;100.00;102551.22;12912042;22;20031;-88
2022/10/18 10:56:20;;;;;;;14.82;3.08;;;;;;;14.72;100.00;102553.00;12938349;22;20499;-92
2022/10/18 11:01:23;;;;;;;12.02;2.05;;;;;;;14.51;100.00;102490.63;12913568;22;20024;-89
2022/10/18 11:06:32;;;;;;;11.95;1.40;;;;;;;16.17;100.00;102719.63;12887469;22;20015;-89
2022/10/18 11:11:35;;;;;;;5.20;1.00;;;;;;;15.57;100.00;102631.16;12923513;22;20080;-87
2022/10/18 11:16:48;;;;;;;12.98;1.42;;;;;;;16.15;100.00;102632.91;12887008;22;20008;-90
2022/10/18 11:21:51;;;;;;;14.93;1.90;;;;;;;15.54;100.00;102538.94;12890975;22;20008;-88
2022/10/18 11:26:57;;;;;;;10.63;1.23;;;;;;;16.49;100.00;102680.19;12887322;22;20046;-90
2022/10/18 11:32:12;;;;;;;9.38;1.80;;;;;;;15.92;100.00;102634.69;12887297;22;20004;-87
2022/10/18 11:37:47;;;;;;;7.05;1.20;;;;;;;16.48;100.00;102647.94;12889173;22;20497;-88
2022/10/18 11:43:10;;;;;;;7.93;1.50;;;;;;;17.17;100.00;102719.22;12911954;22;20334;-89
2022/10/18 11:48:22;;;;;;;13.25;2.00;;;;;;;16.68;100.00;102620.50;12937266;22;20019;-88
2022/10/18 11:53:38;;;;;;;12.55;2.03;;;;;;;16.52;100.00;102710.31;12936928;22;20042;-88
2022/10/18 11:58:46;;;;;;;12.77;1.20;;;;;;;15.53;100.00;102603.88;12963942;22;20008;-89
2022/10/18 12:03:53;;;;;;;12.35;1.80;;;;;;;16.20;100.00;102557.94;12912471;22;20078;-88
2022/10/18 12:08:56;;;;;;;7.75;1.60;;;;;;;16.38;100.00;102592.19;12886244;22;20033;-88
2022/10/18 12:14:01;;;;;;;6.78;1.92;;;;;;;15.01;100.00;102504.00;12887228;22;20011;-89
2022/10/18 12:19:03;;;;;;;7.57;1.20;;;;;;;13.84;100.00;102430.03;12887466;22;20008;-88
2022/10/18 12:24:06;;;;;;;7.72;1.20;;;;;;;15.33;100.00;102570.97;12889210;22;20103;-91
2022/10/18 12:29:20;;;;;;;9.30;2.20;;;;;;;15.67;100.00;102548.91;12895814;22;20039;-91
2022/10/18 12:34:21;;;;;;;20.05;2.13;;;;;;;15.76;100.00;102688.22;12890259;22;20095;-90
2022/10/18 12:39:30;;;;;;;10.48;2.05;;;;;;;15.54;100.00;102650.00;12939843;22;20030;-90
2022/10/18 12:44:34;;;;;;;8.38;1.52;;;;;;;16.07;100.00;102502.72;12887541;22;20000;-90
2022/10/18 12:49:36;;;;;;;10.80;1.33;;;;;;;17.25;100.00;102498.91;12889779;22;20020;-90
2022/10/18 12:54:38;;;;;;;12.80;1.55;;;;;;;17.99;100.00;102427.81;12900391;22;20000;-89
2022/10/18 12:59:39;;;;;;;8.45;1.25;;;;;;;19.23;100.00;102632.03;12916753;22;20380;-88
2022/10/18 13:04:39;;;;;;;13.70;2.38;;;;;;;19.15;100.00;102601.84;12888849;22;19996;-89
2022/10/18 13:09:43;;;;;;;9.73;1.70;;;;;;;19.67;100.00;102573.00;12875148;22;20458;-91
2022/10/18 13:14:52;;;;;;;9.88;1.40;;;;;;;20.87;100.00;102680.06;12877546;22;20061;-89
2022/10/18 13:20:23;;;;;;;8.20;1.65;;;;;;;21.80;100.00;102661.13;12937646;22;20090;-89
2022/10/18 13:25:28;;;;;;;10.77;1.55;;;;;;;20.28;96.64;102465.22;12932281;22;20369;-89
2022/10/18 13:30:38;;;;;;;9.32;1.55;;;;;;;21.48;94.08;102592.31;12888567;22;20071;-89
2022/10/18 13:35:54;;;;;;;6.65;1.20;;;;;;;20.60;95.91;102629.97;12965349;22;19999;-90
2022/10/18 13:41:02;;;;;;;6.53;1.17;;;;;;;21.05;93.77;102561.06;12888617;22;20066;-89
2022/10/18 13:46:02;;;;;;;8.38;1.40;;;;;;;20.21;90.95;102437.50;12876002;22;20014;-88
2022/10/18 13:51:20;;;;;;;10.55;2.50;;;;;;;21.44;89.92;102668.84;12888037;22;20292;-89
2022/10/18 13:56:35;;;;;;;5.63;2.20;;;;;;;21.23;91.41;102578.34;12912322;22;20046;-91
2022/10/18 14:02:08;;;;;;;7.05;1.40;;;;;;;21.00;90.10;102675.91;12852955;22;20304;-89
2022/10/18 14:07:08;;;;;;;9.52;1.33;;;;;;;20.21;92.59;102535.41;12928425;22;20074;-87
2022/10/18 14:12:35;;;;;;;10.18;1.60;;;;;;;19.50;100.00;102615.13;12942638;22;20034;-92
2022/10/18 14:17:56;;;;;;;11.38;1.75;;;;;;;18.85;100.00;102507.59;12923926;22;20018;-91
2022/10/18 14:23:06;;;;;;;11.60;1.75;;;;;;;18.52;100.00;102504.88;12918608;22;20042;-90
2022/10/18 14:28:11;;;;;;;13.68;2.03;;;;;;;19.73;100.00;102672.53;12915509;22;20012;-91
2022/10/18 14:33:23;;;;;;;11.27;1.67;;;;;;;16.94;100.00;102481.81;12898868;22;20012;-91
2022/10/18 14:38:24;;;;;;;8.80;1.40;;;;;;;16.59;100.00;102508.00;12914423;22;20057;-91
2022/10/18 14:43:24;;;;;;;11.25;1.63;;;;;;;16.20;100.00;102602.41;12889720;22;20000;-81
2022/10/18 14:48:25;;;;;;;10.73;1.63;;;;;;;14.96;100.00;102492.78;12926828;22;20035;-91
2022/10/18 14:53:33;;;;;;;8.15;1.38;;;;;;;15.33;100.00;102497.97;12889469;22;20398;-91
2022/10/18 14:58:34;;;;;;;10.32;1.80;;;;;;;15.71;100.00;102555.66;12891805;22;20334;-91
2022/10/18 15:03:35;;;;;;;12.30;1.80;;;;;;;15.29;100.00;102497.63;12889799;22;20027;-91
2022/10/18 15:08:38;;;;;;;8.00;1.95;;;;;;;15.04;100.00;102567.28;12914176;22;20035;-91
2022/10/18 15:13:59;;;;;;;11.13;1.70;;;;;;;15.63;100.00;102757.88;12887815;22;20015;-90
2022/10/18 15:19:18;;;;;;;10.63;1.30;;;;;;;14.25;100.00;102570.38;12917774;22;20027;-90
2022/10/18 15:24:25;;;;;;;13.57;2.05;;;;;;;14.42;100.00;102625.94;12893021;22;20387;-90
2022/10/18 15:29:31;;;;;;;13.38;2.83;;;;;;;13.19;100.00;102466.69;12939562;22;20153;-90
2022/10/18 15:34:31;;;;;;;17.10;1.73;;;;;;;14.58;100.00;102724.22;12892427;22;20007;-87
2022/10/18 15:39:32;;;;;;;9.45;2.25;;;;;;;13.67;100.00;102656.81;12889137;22;20007;-88
2022/10/18 15:44:34;;;;;;;11.68;1.50;;;;;;;13.31;100.00;102597.63;12940636;22;20008;-89
2022/10/18 15:49:44;;;;;;;13.68;2.40;;;;;;;13.68;100.00;102652.97;12892089;22;20027;-91
2022/10/18 15:54:44;;;;;;;10.50;1.38;;;;;;;13.04;100.00;102588.75;12942836;22;20015;-93
2022/10/18 15:59:50;;;;;;;10.23;2.05;;;;;;;12.93;100.00;102568.25;12843180;22;20015;-91
2022/10/18 16:04:51;;;;;;;10.80;1.73;;;;;;;12.81;100.00;102581.13;12922809;22;20004;-92
2022/10/18 16:09:52;;;;;;;8.02;1.60;;;;;;;12.66;100.00;102589.78;12860128;22;20103;-91
2022/10/18 16:14:52;;;;;;;9.68;1.95;;;;;;;12.44;100.00;102568.09;12874801;22;20019;-92
2022/10/18 16:19:56;;;;;;;6.05;1.17;;;;;;;12.10;100.00;102536.28;12887707;22;20008;-89
2022/10/18 16:24:57;;;;;;;6.53;1.40;;;;;;;12.13;100.00;102557.06;12864120;22;20446;-88
2022/10/18 16:29:57;;;;;;;10.65;1.95;;;;;;;13.06;100.00;102745.09;12891589;22;20008;-89
2022/10/18 16:34:58;;;;;;;8.13;0.88;;;;;;;11.37;100.00;102438.25;12889373;22;20131;-87
2022/10/18 16:39:58;;;;;;;8.40;0.98;;;;;;;11.99;100.00;102559.94;12914961;22;20326;-89
2022/10/18 16:44:59;;;;;;;5.53;0.90;;;;;;;12.02;100.00;102600.03;12894161;22;20010;-90
2022/10/18 16:50:01;;;;;;;6.03;0.70;;;;;;;12.50;100.00;102691.47;12895767;22;20438;-89
2022/10/18 16:55:02;;;;;;;7.68;1.08;;;;;;;11.28;100.00;102544.34;12893591;22;20006;-89
2022/10/18 17:00:03;;;;;;;4.75;1.13;;;;;;;12.46;100.00;102726.16;12892129;22;20371;-89
2022/10/18 17:05:04;;;;;;;9.35;1.70;;;;;;;11.34;100.00;102542.63;12890330;22;20410;-88
2022/10/18 17:10:05;;;;;;;5.50;1.02;;;;;;;11.31;100.00;102539.25;12889679;22;20047;-88
2022/10/18 17:15:05;;;;;;;7.47;1.05;;;;;;;12.15;100.00;102712.31;12889032;22;20314;-88
2022/10/18 17:20:06;;;;;;;9.90;1.45;;;;;;;12.13;100.00;102700.63;12893266;22;20019;-86
2022/10/18 17:25:07;;;;;;;7.43;1.17;;;;;;;10.61;100.00;102477.59;12882970;22;20019;-87
2022/10/18 17:30:09;;;;;;;7.00;1.45;;;;;;;12.06;100.00;102717.25;12874875;22;20000;-87
2022/10/18 17:35:10;;;;;;;12.43;1.20;;;;;;;12.77;100.00;102825.88;12888986;22;19999;-87
2022/10/18 17:40:11;;;;;;;7.90;1.60;;;;;;;11.55;100.00;102654.56;12916441;22;20014;-87
2022/10/18 17:45:12;;;;;;;9.32;1.30;;;;;;;11.52;100.00;102662.22;12891137;22;20439;-88
2022/10/18 17:50:13;;;;;;;12.15;1.58;;;;;;;11.66;100.00;102711.84;12913479;22;20026;-87
2022/10/18 17:55:13;;;;;;;9.07;1.63;;;;;;;11.52;100.00;102651.19;12913753;22;20060;-87
2022/10/18 18:00:15;;;;;;;7.80;1.23;;;;;;;11.09;100.00;102624.13;12913160;22;20362;-87
2022/10/18 18:05:15;;;;;;;6.85;1.60;;;;;;;11.39;100.00;102634.69;12888497;22;20018;-87
2022/10/18 18:10:16;;;;;;;9.13;1.45;;;;;;;11.01;100.00;102621.59;12910755;22;20020;-86
2022/10/18 18:15:17;;;;;;;6.28;1.38;;;;;;;10.87;100.00;102608.91;12856694;22;20000;-90
2022/10/18 18:20:19;;;;;;;3.55;1.42;;;;;;;12.04;100.00;102802.19;12894827;22;20015;-90
2022/10/18 18:25:20;;;;;;;8.43;1.60;;;;;;;11.82;100.00;102772.03;12858456;22;20042;-90
2022/10/18 18:30:21;;;;;;;8.52;1.48;;;;;;;10.59;100.00;102615.50;12875390;22;20066;-88
2022/10/18 18:35:22;;;;;;;8.23;1.23;;;;;;;11.55;100.00;102748.34;12846482;22;20023;-86
2022/10/18 18:40:23;;;;;;;7.57;1.23;;;;;;;11.54;100.00;102747.50;12876770;22;20011;-86
2022/10/18 18:45:25;;;;;;;7.20;1.30;;;;;;;11.89;100.00;102817.09;12915089;22;20007;-87
2022/10/18 18:50:26;;;;;;;7.88;1.63;;;;;;;10.76;100.00;102656.41;12905531;22;20195;-87
2022/10/18 18:55:27;;;;;;;7.03;1.52;;;;;;;11.27;100.00;102735.66;12890166;22;20442;-83
2022/10/18 19:00:27;;;;;;;8.57;1.65;;;;;;;10.76;100.00;102662.75;12914177;22;20050;-85
2022/10/18 19:05:28;;;;;;;9.13;1.20;;;;;;;11.36;100.00;102756.44;12888148;22;20016;-85
2022/10/18 19:10:28;;;;;;;4.07;1.45;;;;;;;11.84;100.00;102836.16;12914509;22;20446;-85
2022/10/18 19:15:29;;;;;;;6.25;1.30;;;;;;;11.45;100.00;102738.63;12910519;22;20435;-85
2022/10/18 19:20:30;;;;;;;5.32;1.27;;;;;;;11.99;100.00;102854.41;12887317;22;20004;-85
2022/10/18 19:25:30;;;;;;;9.63;1.88;;;;;;;11.69;100.00;102799.69;12889398;22;20031;-85
2022/10/18 19:30:31;;;;;;;8.35;1.85;;;;;;;11.23;100.00;102724.22;12796261;22;20000;-88
2022/10/18 19:35:31;;;;;;;10.32;2.72;;;;;;;10.80;100.00;102663.19;12898452;22;20019;-89
2022/10/18 19:40:38;;;;;;;8.48;1.92;;;;;;;11.73;100.00;102823.03;12869352;22;20458;-89
2022/10/18 19:45:38;;;;;;;8.80;1.63;;;;;;;10.34;100.00;102589.66;12877567;22;20117;-84
2022/10/18 19:50:39;;;;;;;8.70;2.30;;;;;;;11.41;100.00;102791.63;12902103;22;20331;-89
2022/10/18 19:55:39;;;;;;;17.85;3.33;;;;;;;10.47;100.00;102664.84;12900970;22;20069;-84
2022/10/18 20:00:40;;;;;;;10.25;3.92;;;;;;;10.94;100.00;102735.69;12892877;22;20003;-84
2022/10/18 20:05:41;;;;;;;12.60;3.35;;;;;;;10.25;100.00;102622.88;12887865;22;20399;-84
2022/10/18 20:10:41;;;;;;;5.53;1.95;;;;;;;11.43;100.00;102851.06;12892635;22;20034;-89
2022/10/18 20:15:42;;;;;;;8.73;1.85;;;;;;;11.20;100.00;102812.00;12901099;22;20442;-90
2022/10/18 20:20:43;;;;;;;5.80;1.70;;;;;;;10.75;100.00;102726.31;12900104;22;20015;-89
2022/10/18 20:26:06;;;;;;;8.45;1.45;;;;;;;11.83;100.00;102900.72;12900331;22;20063;-89
2022/10/18 20:31:10;;;;;;;3.90;0.88;;;;;;;11.08;100.00;102764.94;12905069;22;20023;-85
2022/10/18 20:36:14;;;;;;;5.97;1.98;;;;;;;10.68;100.00;102740.94;12867712;22;20080;-84
2022/10/18 20:41:17;;;;;;;6.05;1.67;;;;;;;11.90;100.00;102882.25;12892047;22;20004;-84
2022/10/18 20:46:18;;;;;;;7.85;1.02;;;;;;;11.56;100.00;102849.38;12927970;22;20016;-85
2022/10/18 20:51:20;;;;;;;8.88;1.38;;;;;;;10.97;100.00;102777.44;12878252;22;20017;-86
2022/10/18 20:56:22;;;;;;;7.90;1.23;;;;;;;10.82;100.00;102705.16;12914938;22;20461;-84
2022/10/18 21:01:24;;;;;;;4.07;0.95;;;;;;;11.83;100.00;102873.13;12915826;22;20000;-84
2022/10/18 21:06:28;;;;;;;6.13;1.27;;;;;;;11.42;100.00;102865.91;12892668;22;20399;-88
2022/10/18 21:11:29;;;;;;;14.23;2.53;;;;;;;10.95;100.00;102798.84;12899147;22;20434;-89
2022/10/18 21:16:30;;;;;;;7.65;1.52;;;;;;;11.48;100.00;102936.78;12896844;22;20038;-89
2022/10/18 21:21:31;;;;;;;7.43;1.98;;;;;;;10.42;100.00;102804.22;12896500;22;19999;-90
2022/10/18 21:26:31;;;;;;;12.40;1.40;;;;;;;9.06;100.00;102618.56;12899450;22;20047;-89
2022/10/18 21:31:33;;;;;;;10.98;1.38;;;;;;;9.85;100.00;102787.81;12898424;22;20019;-90
2022/10/18 21:36:35;;;;;;;12.68;1.58;;;;;;;9.92;100.00;102847.53;12919502;22;20019;-91
2022/10/18 21:41:36;;;;;;;9.32;2.10;;;;;;;8.69;100.00;102677.44;12858580;22;20004;-89
2022/10/18 21:46:38;;;;;;;11.63;2.00;;;;;;;8.01;100.00;102598.22;12898135;22;20035;-90
2022/10/18 21:51:38;;;;;;;13.65;1.52;;;;;;;9.13;100.00;102810.97;12895036;22;20000;-88
2022/10/18 21:56:39;;;;;;;5.60;1.30;;;;;;;8.09;100.00;102655.72;12895478;22;20012;-91
2022/10/18 22:01:41;;;;;;;6.03;1.60;;;;;;;8.17;100.00;102690.41;12896381;22;20082;-91
2022/10/18 22:06:42;;;;;;;9.23;2.30;;;;;;;9.09;100.00;102895.72;12894155;22;20012;-91
2022/10/18 22:11:45;;;;;;;12.95;2.80;;;;;;;7.87;100.00;102701.47;12892891;22;20023;-88
2022/10/18 22:16:45;;;;;;;14.30;2.22;;;;;;;7.59;100.00;102714.16;12883679;22;20021;-86
2022/10/18 22:21:46;;;;;;;8.40;1.67;;;;;;;7.65;100.00;102695.06;12863261;22;20003;-87
2022/10/18 22:26:47;;;;;;;11.95;2.00;;;;;;;7.54;100.00;102697.41;12863481;22;20028;-85
2022/10/18 22:31:50;;;;;;;14.70;2.80;;;;;;;8.37;100.00;102794.06;12889286;22;20229;-85
2022/10/18 22:36:53;;;;;;;9.57;2.40;;;;;;;7.85;100.00;102725.50;12890574;22;20338;-86
2022/10/18 22:41:55;;;;;;;6.68;1.83;;;;;;;8.25;100.00;102734.19;12888331;22;20004;-85
2022/10/18 22:46:56;;;;;;;7.80;1.80;;;;;;;8.80;100.00;102835.34;12913226;22;20027;-85
2022/10/18 22:51:56;;;;;;;8.00;2.20;;;;;;;8.67;100.00;102768.25;12889484;22;19999;-86
2022/10/18 22:56:57;;;;;;;10.93;1.70;;;;;;;9.73;100.00;102918.72;12888696;22;20010;-85